sensor_id;sensor_type;location;lat;lon;timestamp;P1;durP1;ratioP1;P2;durP2;ratioP2
45540;SDS011;31265;49.680;8.608;2022-10-17T00:00:45;1.08;;;0.52;;
45540;SDS011;31265;49.680;8.608;2022-10-17T00:03:14;2.42;;;1.23;;
45540;SDS011;31265;49.680;8.608;2022-10-17T00:05:46;2.15;;;1.00;;
45540;SDS011;31265;49.680;8.608;2022-10-17T00:08:17;2.90;;;0.98;;
45540;SDS011;31265;49.680;8.608;2022-10-17T00:10:54;2.40;;;1.00;;
45540;SDS011;31265;49.680;8.608;2022-10-17T00:13:23;2.85;;;0.93;;
45540;SDS011;31265;49.680;8.608;2022-10-17T00:15:52;1.45;;;0.77;;
45540;SDS011;31265;49.680;8.608;2022-10-17T00:18:22;1.83;;;1.00;;
45540;SDS011;31265;49.680;8.608;2022-10-17T00:20:51;1.15;;;0.52;;
45540;SDS011;31265;49.680;8.608;2022-10-17T00:23:22;5.03;;;1.10;;
45540;SDS011;31265;49.680;8.608;2022-10-17T00:25:56;1.73;;;0.88;;
45540;SDS011;31265;49.680;8.608;2022-10-17T00:28:26;1.50;;;0.80;;
45540;SDS011;31265;49.680;8.608;2022-10-17T00:30:57;2.63;;;1.05;;
45540;SDS011;31265;49.680;8.608;2022-10-17T00:33:27;2.60;;;1.05;;
45540;SDS011;31265;49.680;8.608;2022-10-17T00:36:03;3.42;;;1.50;;
45540;SDS011;31265;49.680;8.608;2022-10-17T00:38:35;4.63;;;1.00;;
45540;SDS011;31265;49.680;8.608;2022-10-17T00:41:04;2.22;;;1.17;;
45540;SDS011;31265;49.680;8.608;2022-10-17T00:43:49;1.20;;;0.57;;
45540;SDS011;31265;49.680;8.608;2022-10-17T00:46:19;2.05;;;0.77;;
45540;SDS011;31265;49.680;8.608;2022-10-17T00:51:18;1.45;;;0.65;;
45540;SDS011;31265;49.680;8.608;2022-10-17T00:53:51;2.58;;;0.90;;
45540;SDS011;31265;49.680;8.608;2022-10-17T00:56:26;2.03;;;0.82;;
45540;SDS011;31265;49.680;8.608;2022-10-17T00:58:55;2.38;;;1.10;;
45540;SDS011;31265;49.680;8.608;2022-10-17T01:01:27;2.13;;;0.98;;
45540;SDS011;31265;49.680;8.608;2022-10-17T01:03:57;2.20;;;0.98;;
45540;SDS011;31265;49.680;8.608;2022-10-17T01:06:25;1.73;;;0.70;;
45540;SDS011;31265;49.680;8.608;2022-10-17T01:08:55;2.40;;;1.30;;
45540;SDS011;31265;49.680;8.608;2022-10-17T01:11:32;2.15;;;1.13;;
45540;SDS011;31265;49.680;8.608;2022-10-17T01:14:08;2.30;;;1.23;;
45540;SDS011;31265;49.680;8.608;2022-10-17T01:16:48;2.30;;;0.75;;
45540;SDS011;31265;49.680;8.608;2022-10-17T01:19:33;2.03;;;1.10;;
45540;SDS011;31265;49.680;8.608;2022-10-17T01:22:13;2.40;;;0.80;;
45540;SDS011;31265;49.680;8.608;2022-10-17T01:30:53;2.85;;;1.00;;
45540;SDS011;31265;49.680;8.608;2022-10-17T01:33:35;2.80;;;1.25;;
45540;SDS011;31265;49.680;8.608;2022-10-17T01:36:25;2.92;;;1.00;;
45540;SDS011;31265;49.680;8.608;2022-10-17T01:39:05;1.67;;;0.98;;
45540;SDS011;31265;49.680;8.608;2022-10-17T01:41:48;1.73;;;0.85;;
45540;SDS011;31265;49.680;8.608;2022-10-17T01:44:23;1.65;;;0.88;;
45540;SDS011;31265;49.680;8.608;2022-10-17T01:47:06;1.92;;;1.08;;
45540;SDS011;31265;49.680;8.608;2022-10-17T01:49:37;2.97;;;1.13;;
45540;SDS011;31265;49.680;8.608;2022-10-17T01:52:12;4.30;;;1.55;;
45540;SDS011;31265;49.680;8.608;2022-10-17T01:57:25;2.13;;;1.00;;
45540;SDS011;31265;49.680;8.608;2022-10-17T02:00:08;1.20;;;0.75;;
45540;SDS011;31265;49.680;8.608;2022-10-17T02:02:51;2.03;;;0.85;;
45540;SDS011;31265;49.680;8.608;2022-10-17T02:05:32;7.43;;;1.65;;
45540;SDS011;31265;49.680;8.608;2022-10-17T02:08:04;1.73;;;0.75;;
45540;SDS011;31265;49.680;8.608;2022-10-17T02:10:35;1.35;;;0.70;;
45540;SDS011;31265;49.680;8.608;2022-10-17T02:13:12;1.75;;;0.98;;
45540;SDS011;31265;49.680;8.608;2022-10-17T02:15:55;2.05;;;1.00;;
45540;SDS011;31265;49.680;8.608;2022-10-17T02:19:00;2.40;;;0.90;;
45540;SDS011;31265;49.680;8.608;2022-10-17T02:21:48;1.42;;;0.77;;
45540;SDS011;31265;49.680;8.608;2022-10-17T02:24:26;3.70;;;1.40;;
45540;SDS011;31265;49.680;8.608;2022-10-17T02:27:04;1.67;;;1.02;;
45540;SDS011;31265;49.680;8.608;2022-10-17T02:29:43;2.80;;;1.00;;
45540;SDS011;31265;49.680;8.608;2022-10-17T02:32:16;2.75;;;1.33;;
45540;SDS011;31265;49.680;8.608;2022-10-17T02:35:04;2.47;;;1.30;;
45540;SDS011;31265;49.680;8.608;2022-10-17T02:37:44;2.85;;;1.17;;
45540;SDS011;31265;49.680;8.608;2022-10-17T02:40:15;1.88;;;0.90;;
45540;SDS011;31265;49.680;8.608;2022-10-17T02:42:46;1.95;;;1.20;;
45540;SDS011;31265;49.680;8.608;2022-10-17T02:45:17;2.40;;;1.17;;
45540;SDS011;31265;49.680;8.608;2022-10-17T02:47:57;2.20;;;1.10;;
45540;SDS011;31265;49.680;8.608;2022-10-17T02:50:41;2.67;;;1.58;;
45540;SDS011;31265;49.680;8.608;2022-10-17T02:53:27;2.53;;;1.13;;
45540;SDS011;31265;49.680;8.608;2022-10-17T02:56:00;1.50;;;0.80;;
45540;SDS011;31265;49.680;8.608;2022-10-17T02:58:34;1.50;;;0.73;;
45540;SDS011;31265;49.680;8.608;2022-10-17T03:01:15;2.97;;;1.15;;
45540;SDS011;31265;49.680;8.608;2022-10-17T03:03:45;2.13;;;1.00;;
45540;SDS011;31265;49.680;8.608;2022-10-17T03:06:16;2.38;;;1.13;;
45540;SDS011;31265;49.680;8.608;2022-10-17T03:08:45;1.85;;;0.90;;
45540;SDS011;31265;49.680;8.608;2022-10-17T03:11:17;2.65;;;1.10;;
45540;SDS011;31265;49.680;8.608;2022-10-17T03:13:50;1.35;;;0.60;;
45540;SDS011;31265;49.680;8.608;2022-10-17T03:16:18;2.08;;;0.98;;
45540;SDS011;31265;49.680;8.608;2022-10-17T03:18:51;2.15;;;1.00;;
45540;SDS011;31265;49.680;8.608;2022-10-17T03:21:23;8.43;;;1.10;;
45540;SDS011;31265;49.680;8.608;2022-10-17T03:23:57;1.02;;;0.55;;
45540;SDS011;31265;49.680;8.608;2022-10-17T03:26:26;1.40;;;0.70;;
45540;SDS011;31265;49.680;8.608;2022-10-17T03:28:59;2.22;;;1.15;;
45540;SDS011;31265;49.680;8.608;2022-10-17T03:31:28;3.58;;;0.70;;
45540;SDS011;31265;49.680;8.608;2022-10-17T03:34:01;1.67;;;0.90;;
45540;SDS011;31265;49.680;8.608;2022-10-17T03:36:32;1.33;;;0.75;;
45540;SDS011;31265;49.680;8.608;2022-10-17T03:39:01;1.77;;;0.82;;
45540;SDS011;31265;49.680;8.608;2022-10-17T03:41:32;2.10;;;1.00;;
45540;SDS011;31265;49.680;8.608;2022-10-17T03:44:03;1.70;;;0.87;;
45540;SDS011;31265;49.680;8.608;2022-10-17T03:46:37;2.65;;;0.80;;
45540;SDS011;31265;49.680;8.608;2022-10-17T03:49:07;1.90;;;0.98;;
45540;SDS011;31265;49.680;8.608;2022-10-17T03:51:41;2.03;;;1.08;;
45540;SDS011;31265;49.680;8.608;2022-10-17T03:54:13;2.55;;;1.40;;
45540;SDS011;31265;49.680;8.608;2022-10-17T03:56:44;2.75;;;1.20;;
45540;SDS011;31265;49.680;8.608;2022-10-17T03:59:16;2.67;;;1.30;;
45540;SDS011;31265;49.680;8.608;2022-10-17T04:01:54;3.25;;;1.33;;
45540;SDS011;31265;49.680;8.608;2022-10-17T04:04:33;2.85;;;0.90;;
45540;SDS011;31265;49.680;8.608;2022-10-17T04:07:03;2.55;;;0.95;;
45540;SDS011;31265;49.680;8.608;2022-10-17T04:09:35;1.70;;;0.80;;
45540;SDS011;31265;49.680;8.608;2022-10-17T04:12:17;1.63;;;0.88;;
45540;SDS011;31265;49.680;8.608;2022-10-17T04:14:57;1.52;;;0.85;;
45540;SDS011;31265;49.680;8.608;2022-10-17T04:17:25;1.73;;;0.90;;
45540;SDS011;31265;49.680;8.608;2022-10-17T04:19:54;4.40;;;1.30;;
45540;SDS011;31265;49.680;8.608;2022-10-17T04:22:25;2.83;;;1.23;;
45540;SDS011;31265;49.680;8.608;2022-10-17T04:24:57;1.90;;;0.90;;
45540;SDS011;31265;49.680;8.608;2022-10-17T04:27:34;2.63;;;1.25;;
45540;SDS011;31265;49.680;8.608;2022-10-17T04:30:03;2.50;;;0.90;;
45540;SDS011;31265;49.680;8.608;2022-10-17T04:32:35;2.83;;;1.10;;
45540;SDS011;31265;49.680;8.608;2022-10-17T04:35:21;1.83;;;1.00;;
45540;SDS011;31265;49.680;8.608;2022-10-17T04:37:59;2.13;;;1.15;;
45540;SDS011;31265;49.680;8.608;2022-10-17T04:40:30;2.58;;;1.45;;
45540;SDS011;31265;49.680;8.608;2022-10-17T04:42:59;2.47;;;1.30;;
45540;SDS011;31265;49.680;8.608;2022-10-17T04:45:35;6.65;;;2.22;;
45540;SDS011;31265;49.680;8.608;2022-10-17T04:48:06;5.00;;;2.90;;
45540;SDS011;31265;49.680;8.608;2022-10-17T04:50:40;9.13;;;2.55;;
45540;SDS011;31265;49.680;8.608;2022-10-17T04:53:31;5.30;;;2.83;;
45540;SDS011;31265;49.680;8.608;2022-10-17T04:56:06;3.60;;;1.85;;
45540;SDS011;31265;49.680;8.608;2022-10-17T04:58:39;3.53;;;1.80;;
45540;SDS011;31265;49.680;8.608;2022-10-17T05:01:23;2.85;;;1.17;;
45540;SDS011;31265;49.680;8.608;2022-10-17T05:03:52;2.67;;;1.63;;
45540;SDS011;31265;49.680;8.608;2022-10-17T05:06:22;2.65;;;1.45;;
45540;SDS011;31265;49.680;8.608;2022-10-17T05:09:19;2.67;;;1.65;;
45540;SDS011;31265;49.680;8.608;2022-10-17T05:11:47;2.97;;;1.45;;
45540;SDS011;31265;49.680;8.608;2022-10-17T05:14:20;4.43;;;1.63;;
45540;SDS011;31265;49.680;8.608;2022-10-17T05:16:49;3.53;;;1.60;;
45540;SDS011;31265;49.680;8.608;2022-10-17T05:19:23;2.42;;;1.27;;
45540;SDS011;31265;49.680;8.608;2022-10-17T05:21:57;6.15;;;1.23;;
45540;SDS011;31265;49.680;8.608;2022-10-17T05:24:27;3.00;;;1.33;;
45540;SDS011;31265;49.680;8.608;2022-10-17T05:26:55;3.63;;;1.70;;
45540;SDS011;31265;49.680;8.608;2022-10-17T05:29:26;2.78;;;1.55;;
45540;SDS011;31265;49.680;8.608;2022-10-17T05:32:08;3.05;;;1.35;;
45540;SDS011;31265;49.680;8.608;2022-10-17T05:34:38;3.53;;;1.30;;
45540;SDS011;31265;49.680;8.608;2022-10-17T05:37:06;3.15;;;1.33;;
45540;SDS011;31265;49.680;8.608;2022-10-17T05:39:37;2.92;;;1.50;;
45540;SDS011;31265;49.680;8.608;2022-10-17T05:42:08;4.20;;;1.42;;
45540;SDS011;31265;49.680;8.608;2022-10-17T05:44:37;3.80;;;1.70;;
45540;SDS011;31265;49.680;8.608;2022-10-17T05:47:09;3.75;;;1.80;;
45540;SDS011;31265;49.680;8.608;2022-10-17T05:49:37;2.42;;;1.30;;
45540;SDS011;31265;49.680;8.608;2022-10-17T05:52:19;2.65;;;1.20;;
45540;SDS011;31265;49.680;8.608;2022-10-17T05:55:00;7.88;;;1.73;;
45540;SDS011;31265;49.680;8.608;2022-10-17T05:57:28;2.85;;;1.17;;
45540;SDS011;31265;49.680;8.608;2022-10-17T05:59:57;7.00;;;2.30;;
45540;SDS011;31265;49.680;8.608;2022-10-17T06:02:42;4.82;;;1.90;;
45540;SDS011;31265;49.680;8.608;2022-10-17T06:05:18;6.20;;;2.47;;
45540;SDS011;31265;49.680;8.608;2022-10-17T06:07:49;6.05;;;1.80;;
45540;SDS011;31265;49.680;8.608;2022-10-17T06:10:20;3.53;;;1.52;;
45540;SDS011;31265;49.680;8.608;2022-10-17T06:12:53;4.07;;;1.10;;
45540;SDS011;31265;49.680;8.608;2022-10-17T06:15:22;8.02;;;1.67;;
45540;SDS011;31265;49.680;8.608;2022-10-17T06:17:57;3.05;;;1.50;;
45540;SDS011;31265;49.680;8.608;2022-10-17T06:20:25;3.38;;;2.08;;
45540;SDS011;31265;49.680;8.608;2022-10-17T06:22:54;3.60;;;1.65;;
45540;SDS011;31265;49.680;8.608;2022-10-17T06:25:39;4.00;;;1.65;;
45540;SDS011;31265;49.680;8.608;2022-10-17T06:28:08;3.72;;;1.88;;
45540;SDS011;31265;49.680;8.608;2022-10-17T06:30:40;2.75;;;1.25;;
45540;SDS011;31265;49.680;8.608;2022-10-17T06:33:11;3.83;;;2.00;;
45540;SDS011;31265;49.680;8.608;2022-10-17T06:35:41;2.95;;;1.50;;
45540;SDS011;31265;49.680;8.608;2022-10-17T06:38:20;3.60;;;1.77;;
45540;SDS011;31265;49.680;8.608;2022-10-17T06:40:54;2.60;;;1.20;;
45540;SDS011;31265;49.680;8.608;2022-10-17T06:43:31;4.00;;;2.28;;
45540;SDS011;31265;49.680;8.608;2022-10-17T06:46:18;4.53;;;2.28;;
45540;SDS011;31265;49.680;8.608;2022-10-17T06:48:55;3.63;;;1.80;;
45540;SDS011;31265;49.680;8.608;2022-10-17T06:51:48;3.40;;;1.90;;
45540;SDS011;31265;49.680;8.608;2022-10-17T06:54:26;3.08;;;1.63;;
45540;SDS011;31265;49.680;8.608;2022-10-17T06:57:23;3.83;;;2.13;;
45540;SDS011;31265;49.680;8.608;2022-10-17T07:00:17;3.60;;;1.73;;
45540;SDS011;31265;49.680;8.608;2022-10-17T07:02:50;2.90;;;1.50;;
45540;SDS011;31265;49.680;8.608;2022-10-17T07:05:20;4.25;;;2.15;;
45540;SDS011;31265;49.680;8.608;2022-10-17T07:07:50;12.33;;;2.10;;
45540;SDS011;31265;49.680;8.608;2022-10-17T07:10:19;3.78;;;2.10;;
45540;SDS011;31265;49.680;8.608;2022-10-17T07:12:49;3.30;;;1.58;;
45540;SDS011;31265;49.680;8.608;2022-10-17T07:15:21;3.80;;;2.30;;
45540;SDS011;31265;49.680;8.608;2022-10-17T07:17:51;4.43;;;2.03;;
45540;SDS011;31265;49.680;8.608;2022-10-17T07:20:21;3.25;;;1.85;;
45540;SDS011;31265;49.680;8.608;2022-10-17T07:22:59;4.25;;;1.88;;
45540;SDS011;31265;49.680;8.608;2022-10-17T07:25:29;4.45;;;1.55;;
45540;SDS011;31265;49.680;8.608;2022-10-17T07:28:07;4.10;;;1.80;;
45540;SDS011;31265;49.680;8.608;2022-10-17T07:30:40;3.75;;;2.08;;
45540;SDS011;31265;49.680;8.608;2022-10-17T07:33:10;5.80;;;2.00;;
45540;SDS011;31265;49.680;8.608;2022-10-17T07:35:40;4.60;;;2.03;;
45540;SDS011;31265;49.680;8.608;2022-10-17T07:38:21;17.55;;;3.17;;
45540;SDS011;31265;49.680;8.608;2022-10-17T07:40:55;11.15;;;3.40;;
45540;SDS011;31265;49.680;8.608;2022-10-17T07:43:26;8.02;;;2.15;;
45540;SDS011;31265;49.680;8.608;2022-10-17T07:45:59;7.85;;;2.22;;
45540;SDS011;31265;49.680;8.608;2022-10-17T07:48:30;4.95;;;1.63;;
45540;SDS011;31265;49.680;8.608;2022-10-17T07:51:00;7.43;;;1.55;;
45540;SDS011;31265;49.680;8.608;2022-10-17T07:53:33;3.00;;;1.40;;
45540;SDS011;31265;49.680;8.608;2022-10-17T07:56:03;4.00;;;1.75;;
45540;SDS011;31265;49.680;8.608;2022-10-17T07:58:35;3.15;;;1.60;;
45540;SDS011;31265;49.680;8.608;2022-10-17T08:01:05;3.65;;;1.80;;
45540;SDS011;31265;49.680;8.608;2022-10-17T08:03:41;3.75;;;1.52;;
45540;SDS011;31265;49.680;8.608;2022-10-17T08:06:11;3.50;;;1.27;;
45540;SDS011;31265;49.680;8.608;2022-10-17T08:08:39;3.45;;;1.65;;
45540;SDS011;31265;49.680;8.608;2022-10-17T08:11:09;10.13;;;1.75;;
45540;SDS011;31265;49.680;8.608;2022-10-17T08:13:41;3.97;;;2.00;;
45540;SDS011;31265;49.680;8.608;2022-10-17T08:16:10;9.52;;;2.05;;
45540;SDS011;31265;49.680;8.608;2022-10-17T08:18:41;6.03;;;2.03;;
45540;SDS011;31265;49.680;8.608;2022-10-17T08:21:11;2.97;;;1.42;;
45540;SDS011;31265;49.680;8.608;2022-10-17T08:23:42;4.90;;;1.75;;
45540;SDS011;31265;49.680;8.608;2022-10-17T08:26:11;4.68;;;1.45;;
45540;SDS011;31265;49.680;8.608;2022-10-17T08:28:44;4.82;;;2.03;;
45540;SDS011;31265;49.680;8.608;2022-10-17T08:31:15;3.78;;;1.70;;
45540;SDS011;31265;49.680;8.608;2022-10-17T08:33:46;2.60;;;1.35;;
45540;SDS011;31265;49.680;8.608;2022-10-17T08:36:17;4.05;;;1.67;;
45540;SDS011;31265;49.680;8.608;2022-10-17T08:38:48;2.33;;;1.25;;
45540;SDS011;31265;49.680;8.608;2022-10-17T08:41:33;3.50;;;1.70;;
45540;SDS011;31265;49.680;8.608;2022-10-17T08:44:13;3.53;;;1.55;;
45540;SDS011;31265;49.680;8.608;2022-10-17T08:46:49;2.58;;;1.40;;
45540;SDS011;31265;49.680;8.608;2022-10-17T08:49:22;7.30;;;1.70;;
45540;SDS011;31265;49.680;8.608;2022-10-17T08:52:05;2.15;;;1.20;;
45540;SDS011;31265;49.680;8.608;2022-10-17T08:54:47;2.55;;;1.27;;
45540;SDS011;31265;49.680;8.608;2022-10-17T08:57:17;4.20;;;0.82;;
45540;SDS011;31265;49.680;8.608;2022-10-17T08:59:50;2.33;;;1.00;;
45540;SDS011;31265;49.680;8.608;2022-10-17T09:02:22;2.65;;;1.15;;
45540;SDS011;31265;49.680;8.608;2022-10-17T09:05:09;4.25;;;1.52;;
45540;SDS011;31265;49.680;8.608;2022-10-17T09:07:54;2.75;;;1.42;;
45540;SDS011;31265;49.680;8.608;2022-10-17T09:10:32;4.03;;;1.40;;
45540;SDS011;31265;49.680;8.608;2022-10-17T09:13:16;5.00;;;1.45;;
45540;SDS011;31265;49.680;8.608;2022-10-17T09:16:01;2.60;;;1.27;;
45540;SDS011;31265;49.680;8.608;2022-10-17T09:18:38;3.28;;;1.20;;
45540;SDS011;31265;49.680;8.608;2022-10-17T09:21:13;3.28;;;1.30;;
45540;SDS011;31265;49.680;8.608;2022-10-17T09:23:49;3.38;;;1.40;;
45540;SDS011;31265;49.680;8.608;2022-10-17T09:26:35;2.63;;;1.10;;
45540;SDS011;31265;49.680;8.608;2022-10-17T09:29:10;3.22;;;1.10;;
45540;SDS011;31265;49.680;8.608;2022-10-17T09:34:20;2.70;;;1.15;;
45540;SDS011;31265;49.680;8.608;2022-10-17T09:36:53;6.18;;;1.75;;
45540;SDS011;31265;49.680;8.608;2022-10-17T09:39:29;2.45;;;1.00;;
45540;SDS011;31265;49.680;8.608;2022-10-17T09:41:59;2.42;;;1.20;;
45540;SDS011;31265;49.680;8.608;2022-10-17T09:44:30;22.55;;;2.17;;
45540;SDS011;31265;49.680;8.608;2022-10-17T09:47:14;2.15;;;0.90;;
45540;SDS011;31265;49.680;8.608;2022-10-17T09:49:56;1.88;;;0.65;;
45540;SDS011;31265;49.680;8.608;2022-10-17T09:52:26;1.58;;;0.70;;
45540;SDS011;31265;49.680;8.608;2022-10-17T09:55:05;11.55;;;1.50;;
45540;SDS011;31265;49.680;8.608;2022-10-17T09:57:53;3.25;;;1.10;;
45540;SDS011;31265;49.680;8.608;2022-10-17T10:00:23;1.63;;;0.75;;
45540;SDS011;31265;49.680;8.608;2022-10-17T10:03:08;2.15;;;1.05;;
45540;SDS011;31265;49.680;8.608;2022-10-17T10:05:58;3.63;;;1.13;;
45540;SDS011;31265;49.680;8.608;2022-10-17T10:08:33;3.25;;;1.20;;
45540;SDS011;31265;49.680;8.608;2022-10-17T10:11:03;6.38;;;1.38;;
45540;SDS011;31265;49.680;8.608;2022-10-17T10:13:39;2.45;;;1.02;;
45540;SDS011;31265;49.680;8.608;2022-10-17T10:16:17;3.50;;;1.45;;
45540;SDS011;31265;49.680;8.608;2022-10-17T10:18:51;1.95;;;1.00;;
45540;SDS011;31265;49.680;8.608;2022-10-17T10:21:20;4.68;;;1.48;;
45540;SDS011;31265;49.680;8.608;2022-10-17T10:24:02;2.22;;;0.80;;
45540;SDS011;31265;49.680;8.608;2022-10-17T10:26:33;2.75;;;0.90;;
45540;SDS011;31265;49.680;8.608;2022-10-17T10:29:15;3.35;;;1.02;;
45540;SDS011;31265;49.680;8.608;2022-10-17T10:31:48;4.45;;;0.80;;
45540;SDS011;31265;49.680;8.608;2022-10-17T10:34:20;3.25;;;0.90;;
45540;SDS011;31265;49.680;8.608;2022-10-17T10:37:01;2.35;;;0.95;;
45540;SDS011;31265;49.680;8.608;2022-10-17T10:39:36;2.47;;;0.85;;
45540;SDS011;31265;49.680;8.608;2022-10-17T10:42:16;5.10;;;1.02;;
45540;SDS011;31265;49.680;8.608;2022-10-17T10:44:51;2.95;;;1.23;;
45540;SDS011;31265;49.680;8.608;2022-10-17T10:47:27;1.55;;;0.70;;
45540;SDS011;31265;49.680;8.608;2022-10-17T10:50:15;1.33;;;0.73;;
45540;SDS011;31265;49.680;8.608;2022-10-17T10:52:53;2.80;;;0.82;;
45540;SDS011;31265;49.680;8.608;2022-10-17T10:55:31;1.77;;;0.85;;
45540;SDS011;31265;49.680;8.608;2022-10-17T10:58:05;2.17;;;0.95;;
45540;SDS011;31265;49.680;8.608;2022-10-17T11:00:48;2.20;;;1.00;;
45540;SDS011;31265;49.680;8.608;2022-10-17T11:03:19;3.95;;;0.88;;
45540;SDS011;31265;49.680;8.608;2022-10-17T11:05:55;3.70;;;0.90;;
45540;SDS011;31265;49.680;8.608;2022-10-17T11:08:29;2.60;;;0.50;;
45540;SDS011;31265;49.680;8.608;2022-10-17T11:11:05;1.65;;;0.85;;
45540;SDS011;31265;49.680;8.608;2022-10-17T11:13:44;2.10;;;1.00;;
45540;SDS011;31265;49.680;8.608;2022-10-17T11:16:22;1.52;;;0.70;;
45540;SDS011;31265;49.680;8.608;2022-10-17T11:18:59;2.35;;;1.08;;
45540;SDS011;31265;49.680;8.608;2022-10-17T11:21:38;3.13;;;1.40;;
45540;SDS011;31265;49.680;8.608;2022-10-17T11:24:14;1.98;;;0.85;;
45540;SDS011;31265;49.680;8.608;2022-10-17T11:26:49;2.00;;;0.90;;
45540;SDS011;31265;49.680;8.608;2022-10-17T11:29:22;2.60;;;1.02;;
45540;SDS011;31265;49.680;8.608;2022-10-17T11:31:55;1.85;;;0.90;;
45540;SDS011;31265;49.680;8.608;2022-10-17T11:34:31;2.40;;;1.05;;
45540;SDS011;31265;49.680;8.608;2022-10-17T11:37:08;4.28;;;1.15;;
45540;SDS011;31265;49.680;8.608;2022-10-17T11:39:42;2.00;;;1.10;;
45540;SDS011;31265;49.680;8.608;2022-10-17T11:42:17;1.77;;;0.90;;
45540;SDS011;31265;49.680;8.608;2022-10-17T11:44:51;2.42;;;1.40;;
45540;SDS011;31265;49.680;8.608;2022-10-17T11:47:27;3.30;;;1.27;;
45540;SDS011;31265;49.680;8.608;2022-10-17T11:50:04;2.67;;;1.00;;
45540;SDS011;31265;49.680;8.608;2022-10-17T11:53:07;2.90;;;1.45;;
45540;SDS011;31265;49.680;8.608;2022-10-17T11:55:39;2.30;;;0.95;;
45540;SDS011;31265;49.680;8.608;2022-10-17T11:58:18;2.10;;;0.82;;
45540;SDS011;31265;49.680;8.608;2022-10-17T12:00:59;1.92;;;1.08;;
45540;SDS011;31265;49.680;8.608;2022-10-17T12:03:39;2.15;;;0.90;;
45540;SDS011;31265;49.680;8.608;2022-10-17T12:06:16;1.73;;;0.70;;
45540;SDS011;31265;49.680;8.608;2022-10-17T12:08:58;7.20;;;1.48;;
45540;SDS011;31265;49.680;8.608;2022-10-17T12:11:44;2.10;;;0.85;;
45540;SDS011;31265;49.680;8.608;2022-10-17T12:17:29;2.13;;;0.93;;
45540;SDS011;31265;49.680;8.608;2022-10-17T12:22:54;11.70;;;1.10;;
45540;SDS011;31265;49.680;8.608;2022-10-17T12:25:34;2.85;;;1.23;;
45540;SDS011;31265;49.680;8.608;2022-10-17T12:28:11;3.42;;;1.40;;
45540;SDS011;31265;49.680;8.608;2022-10-17T12:30:51;2.22;;;0.95;;
45540;SDS011;31265;49.680;8.608;2022-10-17T12:33:25;2.03;;;1.13;;
45540;SDS011;31265;49.680;8.608;2022-10-17T12:42:31;6.55;;;0.98;;
45540;SDS011;31265;49.680;8.608;2022-10-17T12:54:50;4.13;;;1.73;;
45540;SDS011;31265;49.680;8.608;2022-10-17T12:57:46;5.45;;;1.00;;
45540;SDS011;31265;49.680;8.608;2022-10-17T13:00:21;1.98;;;1.02;;
45540;SDS011;31265;49.680;8.608;2022-10-17T13:03:00;2.55;;;0.98;;
45540;SDS011;31265;49.680;8.608;2022-10-17T13:05:34;2.00;;;1.00;;
45540;SDS011;31265;49.680;8.608;2022-10-17T13:08:05;1.55;;;0.80;;
45540;SDS011;31265;49.680;8.608;2022-10-17T13:10:43;2.25;;;0.90;;
45540;SDS011;31265;49.680;8.608;2022-10-17T13:13:21;1.95;;;0.88;;
45540;SDS011;31265;49.680;8.608;2022-10-17T13:15:54;3.35;;;0.90;;
45540;SDS011;31265;49.680;8.608;2022-10-17T13:18:28;2.40;;;0.90;;
45540;SDS011;31265;49.680;8.608;2022-10-17T13:23:28;1.67;;;0.93;;
45540;SDS011;31265;49.680;8.608;2022-10-17T13:26:09;1.95;;;0.63;;
45540;SDS011;31265;49.680;8.608;2022-10-17T13:28:43;2.72;;;1.02;;
45540;SDS011;31265;49.680;8.608;2022-10-17T13:31:25;3.03;;;1.05;;
45540;SDS011;31265;49.680;8.608;2022-10-17T13:33:57;5.43;;;0.90;;
45540;SDS011;31265;49.680;8.608;2022-10-17T13:36:28;4.13;;;0.95;;
45540;SDS011;31265;49.680;8.608;2022-10-17T13:38:58;2.20;;;1.00;;
45540;SDS011;31265;49.680;8.608;2022-10-17T13:41:38;2.35;;;1.05;;
45540;SDS011;31265;49.680;8.608;2022-10-17T13:44:11;4.80;;;1.05;;
45540;SDS011;31265;49.680;8.608;2022-10-17T13:46:43;1.92;;;0.90;;
45540;SDS011;31265;49.680;8.608;2022-10-17T13:49:16;5.82;;;1.08;;
45540;SDS011;31265;49.680;8.608;2022-10-17T13:51:53;3.28;;;0.80;;
45540;SDS011;31265;49.680;8.608;2022-10-17T13:54:31;3.40;;;1.15;;
45540;SDS011;31265;49.680;8.608;2022-10-17T13:57:02;3.42;;;1.00;;
45540;SDS011;31265;49.680;8.608;2022-10-17T13:59:37;2.03;;;0.68;;
45540;SDS011;31265;49.680;8.608;2022-10-17T14:02:12;3.72;;;1.88;;
45540;SDS011;31265;49.680;8.608;2022-10-17T14:04:42;1.58;;;0.65;;
45540;SDS011;31265;49.680;8.608;2022-10-17T14:07:33;2.40;;;1.00;;
45540;SDS011;31265;49.680;8.608;2022-10-17T14:10:24;3.17;;;0.73;;
45540;SDS011;31265;49.680;8.608;2022-10-17T14:13:04;2.30;;;1.15;;
45540;SDS011;31265;49.680;8.608;2022-10-17T14:15:35;1.75;;;0.90;;
45540;SDS011;31265;49.680;8.608;2022-10-17T14:18:07;1.42;;;0.70;;
45540;SDS011;31265;49.680;8.608;2022-10-17T14:20:51;1.55;;;0.70;;
45540;SDS011;31265;49.680;8.608;2022-10-17T14:23:41;5.97;;;0.80;;
45540;SDS011;31265;49.680;8.608;2022-10-17T14:26:12;2.40;;;0.85;;
45540;SDS011;31265;49.680;8.608;2022-10-17T14:28:43;3.03;;;0.95;;
45540;SDS011;31265;49.680;8.608;2022-10-17T14:31:25;3.10;;;1.30;;
45540;SDS011;31265;49.680;8.608;2022-10-17T14:33:58;3.60;;;1.00;;
45540;SDS011;31265;49.680;8.608;2022-10-17T14:36:29;1.98;;;0.88;;
45540;SDS011;31265;49.680;8.608;2022-10-17T14:39:00;1.63;;;0.80;;
45540;SDS011;31265;49.680;8.608;2022-10-17T14:41:30;6.65;;;1.05;;
45540;SDS011;31265;49.680;8.608;2022-10-17T14:44:13;6.03;;;1.10;;
45540;SDS011;31265;49.680;8.608;2022-10-17T14:46:48;1.33;;;0.55;;
45540;SDS011;31265;49.680;8.608;2022-10-17T14:49:31;2.17;;;0.60;;
45540;SDS011;31265;49.680;8.608;2022-10-17T14:52:09;2.83;;;0.90;;
45540;SDS011;31265;49.680;8.608;2022-10-17T14:54:54;2.35;;;1.10;;
45540;SDS011;31265;49.680;8.608;2022-10-17T14:57:25;2.70;;;1.08;;
45540;SDS011;31265;49.680;8.608;2022-10-17T15:00:03;2.22;;;1.08;;
45540;SDS011;31265;49.680;8.608;2022-10-17T15:02:34;2.58;;;1.02;;
45540;SDS011;31265;49.680;8.608;2022-10-17T15:05:02;2.47;;;1.17;;
45540;SDS011;31265;49.680;8.608;2022-10-17T15:07:35;4.80;;;1.65;;
45540;SDS011;31265;49.680;8.608;2022-10-17T15:10:04;2.27;;;1.00;;
45540;SDS011;31265;49.680;8.608;2022-10-17T15:12:34;2.30;;;0.93;;
45540;SDS011;31265;49.680;8.608;2022-10-17T15:15:25;2.60;;;1.00;;
45540;SDS011;31265;49.680;8.608;2022-10-17T15:17:56;3.15;;;1.33;;
45540;SDS011;31265;49.680;8.608;2022-10-17T15:20:31;4.25;;;0.95;;
45540;SDS011;31265;49.680;8.608;2022-10-17T15:23:00;2.97;;;1.30;;
45540;SDS011;31265;49.680;8.608;2022-10-17T15:25:29;3.08;;;1.05;;
45540;SDS011;31265;49.680;8.608;2022-10-17T15:28:00;2.90;;;0.85;;
45540;SDS011;31265;49.680;8.608;2022-10-17T15:30:31;2.38;;;1.17;;
45540;SDS011;31265;49.680;8.608;2022-10-17T15:33:04;1.08;;;0.63;;
45540;SDS011;31265;49.680;8.608;2022-10-17T15:35:32;2.65;;;0.88;;
45540;SDS011;31265;49.680;8.608;2022-10-17T15:38:01;3.38;;;1.00;;
45540;SDS011;31265;49.680;8.608;2022-10-17T15:40:32;3.20;;;1.38;;
45540;SDS011;31265;49.680;8.608;2022-10-17T15:43:01;2.72;;;0.90;;
45540;SDS011;31265;49.680;8.608;2022-10-17T15:45:30;6.00;;;2.50;;
45540;SDS011;31265;49.680;8.608;2022-10-17T15:48:03;3.67;;;1.33;;
45540;SDS011;31265;49.680;8.608;2022-10-17T15:50:34;4.45;;;1.00;;
45540;SDS011;31265;49.680;8.608;2022-10-17T15:53:03;3.88;;;1.70;;
45540;SDS011;31265;49.680;8.608;2022-10-17T15:55:33;2.70;;;1.40;;
45540;SDS011;31265;49.680;8.608;2022-10-17T15:58:02;2.55;;;1.20;;
45540;SDS011;31265;49.680;8.608;2022-10-17T16:00:31;4.50;;;1.00;;
45540;SDS011;31265;49.680;8.608;2022-10-17T16:02:59;3.30;;;1.47;;
45540;SDS011;31265;49.680;8.608;2022-10-17T16:05:30;4.32;;;1.02;;
45540;SDS011;31265;49.680;8.608;2022-10-17T16:07:59;2.90;;;1.10;;
45540;SDS011;31265;49.680;8.608;2022-10-17T16:10:28;3.08;;;0.95;;
45540;SDS011;31265;49.680;8.608;2022-10-17T16:12:57;2.22;;;1.00;;